AirNav   Pilot Hours Calculator
 
 660 users online  

FL92 L M Hughey Heliport
Tampa, Florida, USA

GOING TO TAMPA?


FAA INFORMATION EFFECTIVE 02 JANUARY 2020

Location

FAA Identifier: FL92
Lat/Long: 27-56-32.8500N 082-32-09.3200W
27-56.547500N 082-32.155333W
27.9424583,-82.5359222
(estimated)
Elevation: 27 ft. / 8 m (estimated)
Variation: 02W (1985)
From city: 2 miles W of TAMPA, FL
Time zone: UTC -5 (UTC -4 during Daylight Saving Time)
Zip code: 33609

Heliport Operations

Heliport use: Private use. Permission required prior to landing
Activation date: 12/1975
Control tower: no
ARTCC: MIAMI CENTER
FSS: SAINT PETERSBURG FLIGHT SERVICE STATION
Attendance: UNATNDD
Wind indicator: yes
Segmented circle: no

Heliport Communications

WX ASOS at TPA (2.0 nm N): PHONE 813-873-7228
WX AWOS-3 at TPF (5 nm E): 118.925 (813-251-6824)
WX ASOS at PIE (8 nm W): PHONE 727-531-3456
WX AWOS-3 at VDF (11 nm NE): 121.125 (813-630-0924)
WX ASOS at SPG (12 nm SW): 118.875 (727-821-4334)
WX AWOS-3P at CLW (12 nm W): 119.225 (727-449-2184)

Nearby radio navigation aids

VOR radial/distance  VOR name  Freq  Var
PIEr080/8.1ST PETERSBURG VORTAC116.4005W
LALr264/27.8LAKELAND VORTAC116.0001E
SRQr008/32.2SARASOTA VOR/DME117.0005W

 
NDB name  Hdg/Dist  Freq  Var  ID
COSME189/8.636805WTP - .--.
CAPOK115/9.436005WPI .--. ..

Heliport Services

Runway Information

Helipad H1

Dimensions: 50 x 50 ft. / 15 x 15 m
Surface: concrete
Latitude: 27-56.547500N
Longitude: 082-32.155333W
Elevation: 27.0 ft.
Traffic pattern: leftleft

Heliport Ownership and Management from official FAA records

Ownership: Privately-owned
Owner: L M HUGHEY
205 S. HOOVER ST
TAMPA, FL 33609
Phone 813-286-2323
Manager: RON HAMPTON
205 S. HOOVER ST SUITE 400
TAMPA, FL 33609
Phone 813-286-2323

Heliport Operational Statistics

Aircraft based on the field: 1
Helicopters: 1
    

Additional Remarks

FOR CD CTC TAMPA APCH AT 813-878-2528

Instrument Procedures

There are no published instrument procedures at FL92.

Some nearby airports with instrument procedures:

KTPA - Tampa International Airport (2 nm N)
KTPF - Peter O Knight Airport (5 nm E)
KMCF - MacDill Air Force Base (6 nm S)
KPIE - St Pete-Clearwater International Airport (8 nm W)
KVDF - Tampa Executive Airport (11 nm NE)
KSPG - Albert Whitted Airport (12 nm SW)
KCLW - Clearwater Air Park (12 nm W)
 
Loc | Ops | Rwys | IFR | FBO | Links
Com | Nav | Svcs | Stats | Notes


 
Area around FL92 (L M Hughey Heliport)
 
Road maps at: MapQuest Bing Google
 
Aerial photo
No photo
 
Sectional chart

 
Airport distance calculator
Flying to L M Hughey Heliport? Find the distance to fly.

From to FL92

Sunrise and sunset
Times for 21-Jan-2020
 Local
(UTC-5)
 Zulu
(UTC)
Morning civil twilight06:5811:58
Sunrise07:2312:23
Sunset18:0023:00
Evening civil twilight18:2523:25

Current date and time
Zulu (UTC)  21-Jan-2020 11:59:38
Local (UTC-5)  21-Jan-2020 06:59:38
 
METAR
KTPA 211153Z 34010KT 10SM CLR 04/00 A3024 RMK AO2 SLP240 T00440000 10089 20044 53009
KTPF 
5nm E 
211155Z AUTO 02006KT 10SM CLR 06/03 A3024 RMK AO2
KMCF 
6nm S 
211056Z 03005KT 10SM CLR 05/01 A3021 RMK SLP233 53001
KPIE 
8nm W 
211153Z 36010KT 10SM CLR 07/01 A3024 RMK AO2 SLP241 T00670011 10100 20067 53011
KVDF 
11nm NE 
211155Z AUTO 35004KT 10SM CLR 04/02 A3024 RMK AO2
KSPG 
12nm SW 
211153Z 35010KT 10SM CLR 07/03 A3022 RMK AO2 SLP232 T00720033 10111 20072 53011
KCLW 
12nm W 
211135Z AUTO 36005KT 10SM CLR 05/00 A3024 RMK AO2
KPCM 
20nm E 
211135Z AUTO 35005KT 10SM CLR 04/03 A3023 RMK AO2
TAF
KTPA 210525Z 2106/2212 36009KT P6SM SKC FM211500 34011G20KT P6SM SKC FM220400 01012KT P6SM SKC
KMCF 
6nm S 
201700Z 2017/2123 04005KT 9999 SKC QNH3020INS TX16/2018Z TN09/2112Z
KPIE 
8nm W 
210525Z 2106/2206 01011KT P6SM SKC FM211400 34011G17KT P6SM SKC FM220300 36014KT P6SM SKC
NOTAMs
Click for the latest NOTAMs
NOTAMs are issued by the DoD/FAA and will open in a separate window not controlled by AirNav.

 

 
 

Would you like to see your business listed on this page?

 If your business provides an interesting product or service to pilots, flight crews, aircraft, or users of the L M Hughey Heliport, you should consider listing it here.  To start the listing process, click on the button below
 
Add a business
 

Other Pages about L M Hughey Heliport

Update a link
 
Copyright © AirNav, LLC. All rights reserved. Privacy Policy  Contact